Monday, June 18, 2018, 8:46 PM EDT
Back to Local

KEWB, New Bedford Regional Airport

Location: New Bedford, MA, United States Lat: 41.683
Local Time: 8:46 PM EDT ( 0:46 GMT) Lon: -70.967
Time Zone: US/Eastern Elev: 78 ft

Show me the last for .
Show Decoded

2018-06-18 19:53 METAR KEWB 182353Z 23015G22KT 10SM CLR 21/18 A2979 RMK AO2 PK WND 23026/2329
                 SLP086 T02110183 10261 20211 56013 =
2018-06-18 18:53 METAR KEWB 182253Z 23015G20KT 10SM CLR 22/17 A2980 RMK AO2 PK WND 21027/2221
                 SLP091 T02220167 =
2018-06-18 17:53 METAR KEWB 182153Z 22017G23KT 10SM CLR 24/17 A2981 RMK AO2 SLP093 T02440167 =
2018-06-18 16:53 METAR KEWB 182053Z 22015G24KT 10SM CLR 26/18 A2982 RMK AO2 PK WND 22031/2036
                 SLP099 T02560178 56028 =
2018-06-18 15:53 METAR KEWB 181953Z 22017G25KT 10SM CLR 26/19 A2985 RMK AO2 PK WND 20029/1938
                 SLP107 T02560194 =
2018-06-18 14:53 METAR KEWB 181853Z 23009G24KT 10SM CLR 25/18 A2988 RMK AO2 PK WND 21027/1837
                 SLP118 T02500183 =
2018-06-18 13:53 METAR KEWB 181753Z 23016G25KT 10SM CLR 26/18 A2991 RMK AO2 PK WND 21029/1705
                 SLP127 T02560183 10261 20217 58018 =
2018-06-18 12:53 METAR KEWB 181653Z COR 23017G26KT 10SM CLR 25/19 A2993 RMK AO2 PK WND 24028/1601
                 SLP136 T02500189 =
2018-06-18 11:53 METAR KEWB 181553Z 23019G31KT 10SM CLR 26/19 A2994 RMK AO2 PK WND 22031/1550
                 SLP139 T02560189 =
2018-06-18 10:53 METAR KEWB 181453Z 23020G29KT 8SM CLR 25/18 A2996 RMK AO2 PK WND 22029/1449
                 SLP145 T02500183 58012 =
2018-06-18 09:53 METAR KEWB 181353Z 22016G23KT 10SM CLR 25/20 A2997 RMK AO2 SLP148 T02500200 =
2018-06-18 08:53 METAR KEWB 181253Z 22013KT 10SM CLR 24/19 A2999 RMK AO2 SLP155 T02390194 =
2018-06-18 07:53 METAR KEWB 181153Z 21009KT 10SM CLR 22/19 A3000 RMK AO2 SLP157 T02170194 10217
                 20156 58013 =
2018-06-18 06:53 METAR KEWB 181053Z 21010KT 10SM CLR 19/19 A3002 RMK AO2 SLP164 T01940194 =
2018-06-18 05:53 METAR KEWB 180953Z AUTO 22006KT 10SM CLR 18/18 A3002 RMK AO2 SLP166 T01780178 =
2018-06-18 04:53 METAR KEWB 180853Z AUTO 23006KT 10SM CLR 17/17 A3003 RMK AO2 SLP170 T01670167
                 55006 =
2018-06-18 03:53 METAR KEWB 180753Z AUTO 22005KT 10SM CLR 16/16 A3003 RMK AO2 SLP169 T01610161 =
2018-06-18 02:53 METAR KEWB 180653Z AUTO 22004KT 10SM CLR 17/17 A3005 RMK AO2 SLP175 T01670167 =
2018-06-18 01:53 METAR KEWB 180553Z AUTO 22006KT 8SM CLR 16/16 A3005 RMK AO2 SLP176 T01610161
                 10211 20156 58007 =
2018-06-18 00:53 METAR KEWB 180453Z AUTO 22003KT 8SM CLR 16/16 A3007 RMK AO2 SLP181 T01610161
                 403000128 =
2018-06-17 23:53 METAR KEWB 180353Z AUTO 19004KT 10SM CLR 17/17 A3007 RMK AO2 SLP181 T01670167 =
2018-06-17 22:53 METAR KEWB 180253Z AUTO 20003KT 10SM CLR 17/17 A3007 RMK AO2 SLP183 T01670167
                 56003 =
2018-06-17 21:53 METAR KEWB 180153Z 19004KT 10SM CLR 18/16 A3008 RMK AO2 SLP185 T01780161 =
2018-06-17 20:53 METAR KEWB 180053Z 18005KT 10SM CLR 19/16 A3007 RMK AO2 SLP183 T01940161 =

Support USWX by starting your Amazon purchase here.